Current | Forecast
Updated: 5:00 AM JST on April 20, 2018
Observed at Miho AB, Japan
Temperature 46°F
Windchill 42°F
Humidity 71%
Dew Point 37°F
Wind South at 8 mph
Pressure 30.09 in (Rising)
Conditions Clear
Visibility 6.2 miles
UV N/A
Clouds
Yesterday's Maximum 75°F
Yesterday's Minimum 46°F approx.
Yesterday's Heating Degree Days 4 approx.
Sunrise5:26 AM JST
Sunset6:41 PM JST
Moon Rise8:38 AM JST
Moon Set11:08 PM JST
Moon PhaseMoon Phase
Waxing Crescent
Raw METARMETAR RJOH 192000Z 19007KT 9999 NSC 08/03 Q1019


Monday
. High: 73° F.
Tuesday
. High: 71° F.
Wednesday
. High: 66° F.
Thursday
. High: 73° F.
Friday
. High: 73° F.
Saturday
. High: 69° F.
Sunday
. High: 71° F.
Monday
. High: 69° F.

Units: English | Metric

Find the Weather for any City, State or Zipcode, or Country:

U.S. State List | Severe Weather | Tropical Storms | Ski Conditions
United States | Canada | Central America | South America | Asia | Europe | Australia | Africa | Islands

Weather Underground

© Copyright 2018
The Weather Company, LLC